METAR Data

Data at: 1218 UTC 24 May 2022

METAR for:KPVC (Provincetown Muni, MA, US)
Text:KPVC 241156Z AUTO 05010KT 10SM CLR 12/07 A3033 RMK AO2 SLP271 T01220072 10133 20117 51015
Temperature: 12.2°C ( 54°F)
Dewpoint: 7.2°C ( 45°F) [RH = 71%]
Pressure (altimeter):30.33 inches Hg (1027.2 mb) [Sea level pressure: 1027.1 mb]
Winds:from the NE (50 degrees) at 12 MPH (10 knots; 5.1 m/s)
Visibility:10 or more sm (16+ km)
Ceiling:at least 12,000 feet AGL
Clouds:sky clear below 12,000 feet AGL
QC Flag:automated observation with no human augmentation